Time;durP1;ratioP1;P1;durP2;ratioP2;P2;SDS_P1;SDS_P2;PMS_P1;PMS_P2;Temp;Humidity;BMP_temperature;BMP_pressure;BME280_temperature;BME280_humidity;BME280_pressure;Samples;Min_cycle;Max_cycle;Signal;HPM_P1;HPM_P2
2021/12/01 00:01:38;;;;;;;5.63;3.70;;;8.30;25.60;;;;;;5046195;28;20096;-62
2021/12/01 00:04:04;;;;;;;4.23;3.27;;;8.20;24.40;;;;;;5042409;28;20113;-62
2021/12/01 00:06:29;;;;;;;7.77;3.90;;;8.20;24.90;;;;;;5052911;28;20025;-62
2021/12/01 00:08:55;;;;;;;6.20;3.80;;;8.20;25.40;;;;;;5051446;28;20029;-62
2021/12/01 00:11:21;;;;;;;5.10;3.00;;;8.20;25.60;;;;;;5036962;28;20395;-62
2021/12/01 00:13:46;;;;;;;5.27;3.40;;;8.20;26.00;;;;;;5053422;28;20108;-62
2021/12/01 00:16:12;;;;;;;6.03;3.80;;;8.20;25.50;;;;;;5049994;28;20037;-62
2021/12/01 00:18:38;;;;;;;5.73;3.70;;;8.20;25.70;;;;;;5053785;28;20029;-62
2021/12/01 00:21:03;;;;;;;6.40;4.17;;;8.20;25.50;;;;;;5039972;28;20025;-62
2021/12/01 00:23:29;;;;;;;6.07;3.50;;;8.30;25.90;;;;;;5038891;28;20029;-62
2021/12/01 00:25:55;;;;;;;6.13;3.50;;;8.20;24.90;;;;;;5052722;28;20398;-62
2021/12/01 00:28:21;;;;;;;6.10;3.87;;;8.20;26.00;;;;;;5054271;28;20029;-62
2021/12/01 00:30:47;;;;;;;7.87;4.17;;;8.30;25.80;;;;;;5036557;28;20033;-62
2021/12/01 00:33:17;;;;;;;4.23;3.47;;;8.20;25.50;;;;;;5048754;28;20053;-62
2021/12/01 00:35:44;;;;;;;4.43;3.43;;;8.20;26.50;;;;;;5052617;28;20051;-62
2021/12/01 00:38:10;;;;;;;5.87;3.83;;;8.10;25.10;;;;;;5054187;28;20122;-62
2021/12/01 00:40:36;;;;;;;5.70;4.10;;;8.20;26.40;;;;;;5038244;28;20135;-62
2021/12/01 00:43:02;;;;;;;5.83;3.97;;;8.20;26.60;;;;;;5035629;28;20053;-62
2021/12/01 00:45:29;;;;;;;7.03;3.97;;;8.10;26.80;;;;;;5047834;28;20033;-62
2021/12/01 00:47:55;;;;;;;5.50;3.60;;;8.10;27.10;;;;;;5052833;28;20023;-62
2021/12/01 00:50:30;;;;;;;7.53;3.90;;;8.10;26.90;;;;;;5040612;28;20025;-62
2021/12/01 00:53:00;;;;;;;5.67;4.53;;;8.10;26.60;;;;;;5044456;28;20025;-62
2021/12/01 00:55:26;;;;;;;6.87;4.03;;;8.00;27.20;;;;;;5053056;28;20024;-62
2021/12/01 00:57:53;;;;;;;5.63;3.90;;;8.00;26.50;;;;;;5053791;28;20544;-62
2021/12/01 01:00:25;;;;;;;4.83;4.30;;;8.00;26.90;;;;;;5052672;28;20079;-62
2021/12/01 01:02:52;;;;;;;6.13;3.83;;;8.10;27.40;;;;;;5053355;28;20024;-62
2021/12/01 01:05:18;;;;;;;6.50;3.73;;;7.90;26.00;;;;;;5052306;28;20029;-62
2021/12/01 01:07:44;;;;;;;6.57;4.77;;;7.90;27.60;;;;;;5053402;28;20112;-62
2021/12/01 01:18:26;;;;;;;;;;;8.00;27.80;;;;;;5052609;28;20043;-62
2021/12/01 01:20:51;;;;;;;5.70;3.70;;;7.90;27.10;;;;;;5048934;28;19912;-62
2021/12/01 01:23:17;;;;;;;8.40;3.93;;;7.80;28.00;;;;;;5052826;28;20028;-62
2021/12/01 01:25:43;;;;;;;5.77;3.40;;;7.80;28.20;;;;;;5051475;28;20024;-62
2021/12/01 01:28:08;;;;;;;8.53;3.90;;;7.90;27.90;;;;;;5051102;28;20394;-62
2021/12/01 01:30:34;;;;;;;5.57;3.70;;;7.80;28.40;;;;;;5039287;28;20026;-62
2021/12/01 01:33:00;;;;;;;4.97;3.30;;;7.90;28.80;;;;;;5052942;28;20540;-62
2021/12/01 01:35:26;;;;;;;4.97;3.13;;;7.90;29.00;;;;;;5051790;28;20060;-62
2021/12/01 01:37:52;;;;;;;4.43;3.33;;;7.80;28.40;;;;;;5051852;28;20021;-62
2021/12/01 01:40:18;;;;;;;5.10;3.50;;;7.80;29.30;;;;;;5050020;28;20112;-62
2021/12/01 01:42:45;;;;;;;4.67;3.20;;;7.90;29.00;;;;;;5053043;28;20036;-62
2021/12/01 01:45:10;;;;;;;5.80;3.20;;;7.90;28.90;;;;;;5043233;28;20025;-62
2021/12/01 01:47:45;;;;;;;4.13;3.20;;;7.90;28.20;;;;;;5033177;28;20497;-62
2021/12/01 01:50:26;;;;;;;;;;;8.00;28.30;;;;;;5042148;28;20029;-62
2021/12/01 01:52:51;;;;;;;6.70;3.07;;;7.90;28.30;;;;;;5053045;28;20020;-62
2021/12/01 01:55:17;;;;;;;4.47;3.13;;;7.90;28.70;;;;;;5042748;28;20108;-62
2021/12/01 01:57:44;;;;;;;6.17;3.20;;;8.00;28.50;;;;;;5033229;28;20028;-62
2021/12/01 02:00:10;;;;;;;6.03;2.97;;;7.90;28.90;;;;;;5041087;28;20114;-62
2021/12/01 02:02:36;;;;;;;4.17;2.70;;;8.00;29.10;;;;;;5052749;28;20025;-62
2021/12/01 02:05:02;;;;;;;4.53;3.03;;;7.90;29.00;;;;;;5047394;28;20565;-62
2021/12/01 02:07:29;;;;;;;6.17;3.60;;;8.00;29.30;;;;;;5052715;28;20025;-62
2021/12/01 02:09:55;;;;;;;6.37;3.10;;;7.90;28.80;;;;;;5051528;28;20029;-62
2021/12/01 02:12:21;;;;;;;3.50;3.20;;;7.90;29.40;;;;;;5051407;28;20029;-62
2021/12/01 02:14:47;;;;;;;6.53;3.20;;;8.00;29.20;;;;;;5051660;28;20157;-62
2021/12/01 02:17:12;;;;;;;3.27;2.70;;;7.90;29.70;;;;;;5044346;28;20034;-62
2021/12/01 02:19:38;;;;;;;5.57;2.53;;;7.90;29.10;;;;;;5040348;28;20069;-62
2021/12/01 02:22:04;;;;;;;4.03;2.90;;;7.90;28.90;;;;;;5056843;28;20037;-62
2021/12/01 02:24:30;;;;;;;5.73;3.17;;;8.00;30.70;;;;;;5053910;28;20041;-62
2021/12/01 02:26:56;;;;;;;6.33;3.03;;;7.90;29.80;;;;;;5044452;28;20108;-62
2021/12/01 02:29:26;;;;;;;6.63;3.13;;;7.90;30.40;;;;;;5055458;28;20450;-62
2021/12/01 02:31:53;;;;;;;4.60;3.07;;;7.90;30.70;;;;;;5055611;28;20552;-61
2021/12/01 02:34:22;;;;;;;4.83;2.60;;;7.90;30.00;;;;;;5055603;28;20048;-62
2021/12/01 02:36:51;;;;;;;4.03;2.70;;;7.70;29.60;;;;;;5043003;28;20040;-62
2021/12/01 02:39:17;;;;;;;3.83;3.00;;;7.80;30.90;;;;;;5052612;28;20033;-61
2021/12/01 02:41:45;;;;;;;4.30;2.70;;;7.80;31.00;;;;;;5036734;28;20034;-61
2021/12/01 02:44:12;;;;;;;5.80;3.73;;;7.80;30.00;;;;;;5036662;28;20029;-62
2021/12/01 02:46:38;;;;;;;4.53;2.70;;;7.80;30.10;;;;;;5043644;28;20029;-62
2021/12/01 02:49:05;;;;;;;5.07;2.93;;;7.80;30.70;;;;;;5056471;28;20497;-61
2021/12/01 02:51:32;;;;;;;3.43;2.40;;;7.80;31.00;;;;;;5038084;28;20108;-61
2021/12/01 02:53:59;;;;;;;8.40;3.60;;;7.80;30.90;;;;;;5050219;28;20355;-61
2021/12/01 02:56:25;;;;;;;3.93;2.83;;;7.80;31.70;;;;;;5053862;28;20386;-61
2021/12/01 02:58:52;;;;;;;3.13;2.83;;;7.70;30.50;;;;;;5053018;28;20037;-62
2021/12/01 03:01:23;;;;;;;5.97;3.33;;;7.70;31.60;;;;;;5054467;28;20115;-62
2021/12/01 03:03:50;;;;;;;5.27;3.13;;;7.70;32.10;;;;;;5054565;28;20106;-62
2021/12/01 03:06:18;;;;;;;6.10;3.17;;;7.60;32.20;;;;;;5054988;28;20025;-62
2021/12/01 03:08:46;;;;;;;4.47;3.37;;;7.70;32.20;;;;;;5055824;28;20025;-62
2021/12/01 03:11:12;;;;;;;4.70;3.13;;;7.60;26.60;;;;;;5038013;28;20383;-62
2021/12/01 03:13:39;;;;;;;5.07;3.00;;;7.50;26.20;;;;;;5035927;28;20056;-62
2021/12/01 03:16:05;;;;;;;5.00;3.27;;;7.50;26.60;;;;;;5048460;28;20032;-61
2021/12/01 03:18:30;;;;;;;4.13;3.07;;;7.50;26.40;;;;;;5055787;28;20033;-62
2021/12/01 03:20:57;;;;;;;5.90;3.37;;;7.50;26.80;;;;;;5042824;28;20550;-62
2021/12/01 03:23:23;;;;;;;4.37;3.07;;;7.60;26.90;;;;;;5035768;28;20430;-62
2021/12/01 03:25:49;;;;;;;4.47;2.50;;;7.60;27.20;;;;;;5044547;28;20037;-62
2021/12/01 03:28:15;;;;;;;4.10;3.37;;;7.60;26.80;;;;;;5035522;28;20022;-62
2021/12/01 03:30:41;;;;;;;3.90;2.77;;;7.50;27.00;;;;;;5048787;28;20093;-61
2021/12/01 03:33:10;;;;;;;7.33;3.03;;;7.60;26.60;;;;;;5055419;28;20021;-62
2021/12/01 03:35:38;;;;;;;8.23;2.90;;;7.60;26.60;;;;;;5051346;28;20057;-61
2021/12/01 03:38:04;;;;;;;3.90;3.10;;;7.60;26.90;;;;;;5041950;28;20028;-61
2021/12/01 03:40:30;;;;;;;4.87;2.93;;;7.60;26.80;;;;;;5047419;28;20403;-62
2021/12/01 03:42:56;;;;;;;5.67;2.80;;;7.60;27.10;;;;;;5035263;28;20021;-62
2021/12/01 03:45:21;;;;;;;4.80;2.83;;;7.50;27.00;;;;;;5035457;28;20154;-62
2021/12/01 03:47:47;;;;;;;3.07;2.77;;;7.40;26.30;;;;;;5047258;28;20108;-62
2021/12/01 03:50:13;;;;;;;4.20;2.70;;;7.40;26.90;;;;;;5049028;28;20096;-62
2021/12/01 03:52:39;;;;;;;4.77;3.10;;;7.40;27.40;;;;;;5035224;28;20083;-62
2021/12/01 03:55:06;;;;;;;4.37;3.10;;;7.50;27.90;;;;;;5038334;28;20094;-62
2021/12/01 03:57:31;;;;;;;5.47;2.97;;;7.50;27.60;;;;;;5048319;28;20076;-62
2021/12/01 03:59:57;;;;;;;3.90;2.73;;;7.40;27.40;;;;;;5034926;28;20064;-62
2021/12/01 04:02:23;;;;;;;7.30;2.80;;;7.40;27.80;;;;;;5040964;28;20438;-62
2021/12/01 04:04:49;;;;;;;4.13;2.90;;;7.40;28.10;;;;;;5052512;28;20086;-62
2021/12/01 04:07:15;;;;;;;3.40;2.43;;;7.40;27.80;;;;;;5034917;28;20025;-62
2021/12/01 04:09:43;;;;;;;4.67;2.87;;;7.40;39.60;;;;;;5034764;28;20430;-62
2021/12/01 04:12:09;;;;;;;3.13;2.57;;;7.40;40.20;;;;;;5039032;28;20483;-62
2021/12/01 04:14:35;;;;;;;5.00;3.20;;;7.30;38.80;;;;;;5053480;28;20483;-62
2021/12/01 04:17:01;;;;;;;3.73;2.80;;;7.40;40.70;;;;;;5051042;28;20021;-62
2021/12/01 04:19:27;;;;;;;5.27;3.27;;;7.20;40.30;;;;;;5034497;28;20379;-62
2021/12/01 04:21:52;;;;;;;5.03;2.90;;;7.40;43.70;;;;;;5037464;28;20071;-62
2021/12/01 04:24:18;;;;;;;5.07;3.10;;;7.20;43.20;;;;;;5054284;28;20490;-62
2021/12/01 04:26:44;;;;;;;4.13;2.87;;;7.20;43.40;;;;;;5053074;28;20025;-62
2021/12/01 04:29:10;;;;;;;4.10;3.00;;;7.20;37.80;;;;;;5034214;28;20057;-62
2021/12/01 04:31:37;;;;;;;4.43;2.73;;;7.30;36.80;;;;;;5035580;28;20095;-62
2021/12/01 04:34:04;;;;;;;4.80;3.13;;;7.30;36.60;;;;;;5053218;28;20040;-62
2021/12/01 04:36:33;;;;;;;4.17;2.90;;;7.40;37.50;;;;;;5054194;28;20094;-62
2021/12/01 04:39:00;;;;;;;3.83;3.10;;;7.30;37.10;;;;;;5034317;28;20036;-62
2021/12/01 04:41:28;;;;;;;5.90;2.97;;;7.30;37.30;;;;;;5045017;28;20482;-62
2021/12/01 04:43:54;;;;;;;4.37;3.50;;;7.30;36.90;;;;;;5052920;28;20061;-62
2021/12/01 04:46:20;;;;;;;4.57;3.03;;;7.30;37.00;;;;;;5053840;28;20513;-62
2021/12/01 04:48:47;;;;;;;4.67;2.77;;;7.30;36.60;;;;;;5036893;28;20029;-62
2021/12/01 04:51:13;;;;;;;6.63;3.00;;;7.30;36.30;;;;;;5035226;28;20049;-62
2021/12/01 04:53:39;;;;;;;5.17;2.70;;;7.30;36.60;;;;;;5048277;28;20521;-62
2021/12/01 04:56:05;;;;;;;4.03;3.23;;;7.20;35.90;;;;;;5053851;28;20458;-63
2021/12/01 04:58:31;;;;;;;4.93;2.93;;;7.30;36.50;;;;;;5052034;28;20033;-62
2021/12/01 05:00:57;;;;;;;3.87;2.80;;;7.30;36.50;;;;;;5053416;28;20456;-62
2021/12/01 05:03:23;;;;;;;4.47;3.10;;;7.30;36.20;;;;;;5039630;28;20032;-62
2021/12/01 05:05:49;;;;;;;6.07;3.00;;;7.30;36.70;;;;;;5052520;28;20486;-63
2021/12/01 05:08:14;;;;;;;5.93;2.83;;;7.30;37.40;;;;;;5050237;28;20116;-62
2021/12/01 05:10:40;;;;;;;3.07;2.77;;;7.30;37.30;;;;;;5052997;28;20021;-62
2021/12/01 05:13:06;;;;;;;4.37;2.47;;;7.30;37.40;;;;;;5052417;28;20517;-62
2021/12/01 05:15:31;;;;;;;3.97;2.60;;;7.30;37.90;;;;;;5036201;28;20029;-62
2021/12/01 05:17:57;;;;;;;3.73;2.93;;;7.30;37.70;;;;;;5033282;28;20033;-62
2021/12/01 05:20:23;;;;;;;4.37;3.10;;;7.20;37.70;;;;;;5045740;28;20071;-62
2021/12/01 05:22:48;;;;;;;5.27;3.53;;;7.30;37.50;;;;;;5045235;28;20032;-62
2021/12/01 05:25:14;;;;;;;5.43;3.30;;;7.30;37.50;;;;;;5033360;28;20100;-62
2021/12/01 05:27:39;;;;;;;5.60;3.30;;;7.30;37.50;;;;;;5034688;28;20017;-62
2021/12/01 05:30:06;;;;;;;4.40;3.20;;;7.30;37.00;;;;;;5034477;28;20033;-62
2021/12/01 05:32:32;;;;;;;3.37;3.00;;;7.30;38.10;;;;;;5048100;28;20076;-62
2021/12/01 05:34:58;;;;;;;4.93;3.23;;;7.20;38.00;;;;;;5046046;28;20060;-62
2021/12/01 05:37:24;;;;;;;4.60;3.10;;;7.20;37.40;;;;;;5051587;28;20033;-62
2021/12/01 05:39:49;;;;;;;3.23;2.50;;;7.20;37.80;;;;;;5051785;28;20090;-62
2021/12/01 05:42:16;;;;;;;5.07;3.40;;;7.20;36.70;;;;;;5050734;28;20037;-62
2021/12/01 05:44:43;;;;;;;4.33;2.80;;;7.10;38.10;;;;;;5052848;28;20025;-62
2021/12/01 05:47:09;;;;;;;3.97;2.53;;;7.10;37.70;;;;;;5050865;28;20050;-62
2021/12/01 05:49:41;;;;;;;5.40;3.07;;;7.10;38.40;;;;;;5032939;28;20029;-62
2021/12/01 05:52:08;;;;;;;4.43;2.50;;;7.20;39.00;;;;;;5032039;28;20028;-62
2021/12/01 05:54:33;;;;;;;3.93;2.80;;;7.20;39.00;;;;;;5053169;28;20044;-62
2021/12/01 05:56:59;;;;;;;3.77;2.40;;;7.30;39.90;;;;;;5052345;28;20423;-62
2021/12/01 05:59:25;;;;;;;4.30;2.37;;;7.30;39.50;;;;;;5042134;28;20123;-62
2021/12/01 06:01:50;;;;;;;6.27;2.50;;;7.30;39.40;;;;;;5051011;28;20382;-62
2021/12/01 06:04:16;;;;;;;6.23;2.33;;;7.30;39.50;;;;;;5034696;28;20037;-62
2021/12/01 06:06:41;;;;;;;4.07;2.37;;;7.40;40.30;;;;;;5031325;28;20097;-62
2021/12/01 06:09:07;;;;;;;5.47;2.70;;;7.40;40.40;;;;;;5046946;28;20036;-62
2021/12/01 06:11:33;;;;;;;3.67;2.57;;;7.30;40.50;;;;;;5050745;28;20044;-62
2021/12/01 06:13:59;;;;;;;4.77;2.37;;;7.40;40.60;;;;;;5048149;28;20025;-62
2021/12/01 06:16:25;;;;;;;4.63;2.13;;;7.40;40.10;;;;;;5049353;28;20043;-62
2021/12/01 06:18:51;;;;;;;5.17;2.30;;;7.30;40.90;;;;;;5051618;28;20029;-62
2021/12/01 06:21:17;;;;;;;4.87;2.50;;;7.30;40.20;;;;;;5052472;28;20083;-62
2021/12/01 06:23:43;;;;;;;7.83;2.60;;;7.30;40.70;;;;;;5051810;28;20459;-62
2021/12/01 06:26:09;;;;;;;3.77;2.60;;;7.30;40.50;;;;;;5051759;28;20112;-62
2021/12/01 06:28:34;;;;;;;4.53;2.80;;;7.30;40.10;;;;;;5051128;28;20124;-62
2021/12/01 06:31:00;;;;;;;6.03;2.47;;;7.40;41.70;;;;;;5052744;28;20466;-62
2021/12/01 06:33:26;;;;;;;5.47;2.57;;;7.40;41.70;;;;;;5042448;28;20364;-62
2021/12/01 06:35:52;;;;;;;3.93;2.23;;;7.40;41.60;;;;;;5030914;28;20057;-62
2021/12/01 06:38:19;;;;;;;5.23;2.53;;;7.40;41.80;;;;;;5049785;28;20033;-62
2021/12/01 06:40:46;;;;;;;5.37;2.60;;;7.40;41.60;;;;;;5044528;28;20045;-62
2021/12/01 06:43:12;;;;;;;7.93;3.13;;;7.40;41.70;;;;;;5058042;28;20082;-63
2021/12/01 06:45:38;;;;;;;7.03;3.53;;;7.30;41.40;;;;;;5050801;28;20394;-62
2021/12/01 06:48:04;;;;;;;5.07;2.57;;;7.40;42.00;;;;;;5046061;28;20030;-62
2021/12/01 06:50:30;;;;;;;6.87;2.80;;;7.30;41.80;;;;;;5038863;28;20029;-62
2021/12/01 06:52:56;;;;;;;6.97;3.60;;;7.30;41.80;;;;;;5044575;28;20031;-62
2021/12/01 06:55:23;;;;;;;5.20;2.90;;;7.40;42.60;;;;;;5033712;28;20036;-62
2021/12/01 06:57:49;;;;;;;4.90;3.07;;;7.50;43.00;;;;;;5045339;28;20024;-62
2021/12/01 07:00:16;;;;;;;7.93;3.57;;;7.40;42.70;;;;;;5048537;28;20447;-62
2021/12/01 07:02:42;;;;;;;6.70;3.47;;;7.50;42.60;;;;;;5049053;28;20676;-62
2021/12/01 07:05:09;;;;;;;4.40;3.17;;;7.50;42.90;;;;;;5048392;28;20025;-62
2021/12/01 07:07:35;;;;;;;6.27;3.10;;;7.40;42.50;;;;;;5051642;28;20037;-62
2021/12/01 07:10:02;;;;;;;6.53;3.00;;;7.40;41.90;;;;;;5055138;28;20098;-62
2021/12/01 07:12:28;;;;;;;7.17;3.23;;;7.40;41.80;;;;;;5053901;28;20442;-62
2021/12/01 07:14:53;;;;;;;9.70;3.20;;;7.50;42.30;;;;;;5043178;28;20040;-62
2021/12/01 07:17:19;;;;;;;4.80;3.37;;;7.40;41.50;;;;;;5054490;28;20123;-62
2021/12/01 07:19:46;;;;;;;7.53;4.17;;;7.50;41.60;;;;;;5052565;28;20491;-62
2021/12/01 07:22:12;;;;;;;7.00;3.87;;;7.40;40.40;;;;;;5055206;28;20040;-62
2021/12/01 07:24:38;;;;;;;6.87;3.83;;;7.50;42.00;;;;;;5054229;28;20037;-62
2021/12/01 07:27:03;;;;;;;9.87;4.03;;;7.50;42.20;;;;;;5052973;28;20032;-62
2021/12/01 07:29:30;;;;;;;12.23;5.10;;;7.40;43.00;;;;;;5045056;28;20037;-62
2021/12/01 07:31:56;;;;;;;10.07;5.20;;;7.40;43.60;;;;;;5049662;28;20033;-62
2021/12/01 07:34:21;;;;;;;11.73;5.60;;;7.40;43.70;;;;;;5048073;28;20031;-62
2021/12/01 07:36:48;;;;;;;15.67;6.13;;;7.40;43.60;;;;;;5053711;28;20037;-62
2021/12/01 07:39:13;;;;;;;11.97;5.67;;;7.30;43.50;;;;;;5052938;28;20140;-62
2021/12/01 07:41:39;;;;;;;13.23;6.50;;;7.30;43.80;;;;;;5054845;28;20483;-62
2021/12/01 07:44:05;;;;;;;12.27;6.17;;;7.20;43.60;;;;;;5042588;28;20029;-62
2021/12/01 07:46:30;;;;;;;13.93;6.30;;;7.20;43.80;;;;;;5041210;28;20037;-62
2021/12/01 07:48:56;;;;;;;12.27;7.33;;;7.20;43.90;;;;;;5044920;28;20021;-62
2021/12/01 07:51:22;;;;;;;16.13;9.70;;;7.10;42.50;;;;;;5054569;28;20037;-62
2021/12/01 07:53:47;;;;;;;19.97;9.07;;;7.10;42.70;;;;;;5044889;28;20028;-62
2021/12/01 07:56:13;;;;;;;14.80;7.93;;;7.00;43.10;;;;;;5051971;28;20438;-62
2021/12/01 07:58:39;;;;;;;17.27;7.43;;;6.80;42.50;;;;;;5053778;28;20045;-63
2021/12/01 08:01:04;;;;;;;13.47;7.23;;;6.90;41.70;;;;;;5049204;28;20200;-62
2021/12/01 08:03:30;;;;;;;14.00;7.60;;;7.00;41.20;;;;;;5049981;28;20022;-62
2021/12/01 08:05:56;;;;;;;14.43;7.73;;;6.90;41.00;;;;;;5044105;28;20056;-62
2021/12/01 08:08:21;;;;;;;19.97;8.40;;;6.90;40.60;;;;;;5053724;28;20052;-62
2021/12/01 08:10:47;;;;;;;15.13;6.83;;;7.00;40.40;;;;;;5052724;28;20031;-62
2021/12/01 08:13:13;;;;;;;19.27;8.20;;;7.10;40.40;;;;;;5038151;28;20481;-62
2021/12/01 08:15:38;;;;;;;21.60;7.53;;;7.20;41.10;;;;;;5053536;28;20572;-62
2021/12/01 08:18:04;;;;;;;14.10;7.43;;;7.20;39.50;;;;;;5043168;28;20033;-62
2021/12/01 08:20:30;;;;;;;15.43;8.47;;;7.40;39.60;;;;;;5046220;28;20048;-62
2021/12/01 08:22:55;;;;;;;15.97;7.97;;;7.40;39.20;;;;;;5052464;28;20032;-62
2021/12/01 08:25:22;;;;;;;15.43;6.73;;;7.50;39.70;;;;;;5053395;28;20150;-62
2021/12/01 08:27:48;;;;;;;17.10;7.43;;;7.50;39.00;;;;;;5050534;28;20029;-63
2021/12/01 08:30:14;;;;;;;10.73;6.87;;;7.60;39.80;;;;;;5033720;28;20533;-62
2021/12/01 08:32:45;;;;;;;16.30;7.03;;;7.70;37.70;;;;;;5049660;28;20442;-62
2021/12/01 08:35:13;;;;;;;13.07;8.50;;;7.60;39.40;;;;;;5047268;28;20060;-62
2021/12/01 08:37:38;;;;;;;17.67;7.13;;;7.70;39.60;;;;;;5053740;28;20018;-62
2021/12/01 08:40:05;;;;;;;16.87;7.83;;;7.70;39.80;;;;;;5035172;28;20040;-62
2021/12/01 08:42:31;;;;;;;16.83;6.87;;;7.70;38.80;;;;;;5034142;28;20071;-62
2021/12/01 08:44:56;;;;;;;11.97;7.17;;;7.70;38.70;;;;;;5034057;28;20479;-63
2021/12/01 08:47:26;;;;;;;12.67;6.77;;;7.80;39.40;;;;;;5051489;28;20033;-62
2021/12/01 08:49:52;;;;;;;19.03;12.77;;;7.80;37.60;;;;;;5051630;28;20025;-62
2021/12/01 08:52:18;;;;;;;20.07;9.23;;;7.80;38.50;;;;;;5053178;28;20025;-62
2021/12/01 08:54:45;;;;;;;9.43;6.47;;;7.90;38.50;;;;;;5045935;28;20057;-62
2021/12/01 08:57:10;;;;;;;9.77;5.57;;;7.90;38.90;;;;;;5052614;28;20025;-62
2021/12/01 08:59:37;;;;;;;13.23;6.00;;;7.90;38.30;;;;;;5050239;28;20098;-62
2021/12/01 09:02:03;;;;;;;15.87;7.93;;;7.90;38.50;;;;;;5043486;28;20155;-63
2021/12/01 09:04:29;;;;;;;12.67;11.37;;;7.90;38.00;;;;;;5051215;28;20033;-62
2021/12/01 09:06:55;;;;;;;13.37;7.53;;;8.00;38.00;;;;;;5068928;28;20169;-62
2021/12/01 09:09:21;;;;;;;17.53;8.23;;;8.10;38.60;;;;;;5052334;28;20078;-62
2021/12/01 09:11:49;;;;;;;18.27;6.87;;;8.10;37.90;;;;;;5033425;28;20479;-62
2021/12/01 09:14:15;;;;;;;9.40;5.33;;;8.20;38.80;;;;;;5042783;28;20463;-63
2021/12/01 09:16:42;;;;;;;11.23;5.80;;;8.20;38.20;;;;;;5051273;28;20486;-62
2021/12/01 09:19:08;;;;;;;12.17;6.03;;;8.20;37.90;;;;;;5044094;28;20024;-63
2021/12/01 09:21:36;;;;;;;13.97;7.30;;;8.20;36.40;;;;;;5033438;28;20030;-63
2021/12/01 09:24:03;;;;;;;11.67;6.23;;;8.20;36.00;;;;;;5033632;28;20116;-62
2021/12/01 09:26:29;;;;;;;10.03;5.23;;;8.30;36.90;;;;;;5046446;28;20024;-63
2021/12/01 09:28:55;;;;;;;12.77;6.00;;;8.30;36.80;;;;;;5047012;28;20060;-63
2021/12/01 09:31:21;;;;;;;12.60;6.00;;;8.30;36.40;;;;;;5051683;28;20489;-62
2021/12/01 09:33:47;;;;;;;10.20;5.87;;;8.30;37.20;;;;;;5050324;28;20064;-62
2021/12/01 09:36:13;;;;;;;13.90;5.90;;;8.30;37.30;;;;;;5042865;28;20095;-63
2021/12/01 09:38:40;;;;;;;14.30;5.53;;;8.40;36.90;;;;;;5050774;28;20470;-62
2021/12/01 09:41:06;;;;;;;10.63;6.10;;;8.40;37.10;;;;;;5047066;28;20033;-62
2021/12/01 09:43:32;;;;;;;10.50;7.40;;;8.60;37.40;;;;;;5051848;28;20092;-63
2021/12/01 09:46:00;;;;;;;9.47;5.57;;;8.60;37.20;;;;;;5052464;28;20040;-63
2021/12/01 09:48:27;;;;;;;9.97;6.30;;;8.70;37.40;;;;;;5050607;28;20051;-62
2021/12/01 09:50:53;;;;;;;8.40;6.00;;;8.80;36.20;;;;;;5032998;28;20460;-63
2021/12/01 09:53:19;;;;;;;12.23;6.40;;;8.90;34.10;;;;;;5033347;28;20031;-62
2021/12/01 09:55:45;;;;;;;8.07;5.67;;;9.10;37.50;;;;;;5052334;28;20083;-63
2021/12/01 09:58:15;;;;;;;10.47;5.23;;;9.20;43.20;;;;;;5052749;28;20483;-62
2021/12/01 10:00:45;;;;;;;10.67;5.67;;;9.30;44.00;;;;;;5050583;28;20079;-62
2021/12/01 10:03:12;;;;;;;8.40;5.50;;;9.30;41.40;;;;;;5032776;28;20029;-63
2021/12/01 10:05:52;;;;;;;9.27;5.50;;;9.30;42.90;;;;;;5043032;28;20036;-62
2021/12/01 10:08:20;;;;;;;9.40;6.23;;;9.20;43.70;;;;;;5052262;28;20124;-63
2021/12/01 10:10:47;;;;;;;10.70;5.90;;;9.30;44.80;;;;;;5051536;28;20055;-63
2021/12/01 10:13:12;;;;;;;8.10;5.27;;;9.20;44.60;;;;;;5051229;28;20080;-63
2021/12/01 10:15:38;;;;;;;10.30;5.43;;;9.20;41.40;;;;;;5035572;28;20030;-63
2021/12/01 10:18:16;;;;;;;16.67;8.00;;;9.40;41.30;;;;;;5032693;28;20029;-62
2021/12/01 10:20:43;;;;;;;9.90;5.87;;;9.50;45.10;;;;;;5039652;28;20037;-62
2021/12/01 10:23:14;;;;;;;11.03;6.77;;;9.50;36.00;;;;;;5052509;28;20027;-63
2021/12/01 10:25:41;;;;;;;7.93;5.57;;;9.60;36.50;;;;;;5050832;28;20033;-63
2021/12/01 10:28:07;;;;;;;10.60;6.03;;;9.50;34.90;;;;;;5052443;28;20025;-63
2021/12/01 10:30:38;;;;;;;8.70;5.47;;;9.40;34.40;;;;;;5034458;28;20053;-63
2021/12/01 10:33:12;;;;;;;9.50;5.47;;;9.50;34.70;;;;;;5032623;28;20022;-63
2021/12/01 10:35:39;;;;;;;11.13;7.45;;;9.50;33.80;;;;;;5049378;28;20049;-62
2021/12/01 10:38:06;;;;;;;11.10;8.43;;;9.60;34.70;;;;;;5054119;28;20505;-63
2021/12/01 10:40:33;;;;;;;11.10;8.23;;;9.90;45.00;;;;;;5038308;28;20102;-63
2021/12/01 10:43:11;;;;;;;13.57;9.50;;;9.90;39.80;;;;;;5045444;28;20036;-62
2021/12/01 10:45:40;;;;;;;12.53;8.83;;;9.90;45.70;;;;;;5053861;28;20033;-63
2021/12/01 10:48:10;;;;;;;13.80;9.83;;;9.90;45.20;;;;;;5052843;28;20081;-62
2021/12/01 10:50:39;;;;;;;13.57;10.10;;;9.80;43.50;;;;;;5038856;28;20471;-63
2021/12/01 10:53:30;;;;;;;14.80;9.43;;;9.90;44.20;;;;;;5048260;28;20033;-63
2021/12/01 10:56:02;;;;;;;20.03;10.23;;;9.70;43.80;;;;;;5053453;28;20497;-63
2021/12/01 10:58:37;;;;;;;15.20;10.47;;;9.60;43.40;;;;;;5054603;28;20040;-63
2021/12/01 11:01:06;;;;;;;16.33;10.33;;;9.60;44.20;;;;;;5041465;28;20037;-62
2021/12/01 11:03:42;;;;;;;12.07;9.30;;;9.60;44.20;;;;;;5055310;28;20048;-62
2021/12/01 11:06:19;;;;;;;17.97;9.90;;;9.60;44.10;;;;;;5035829;28;20029;-62
2021/12/01 11:08:48;;;;;;;15.93;10.03;;;9.80;44.70;;;;;;5045960;28;20033;-62
2021/12/01 11:11:18;;;;;;;22.27;13.07;;;10.00;44.30;;;;;;5037030;28;20021;-62
2021/12/01 11:13:46;;;;;;;21.30;12.10;;;10.00;44.30;;;;;;5052237;28;20079;-63
2021/12/01 11:16:14;;;;;;;14.37;11.13;;;10.20;44.80;;;;;;5055568;28;20037;-63
2021/12/01 11:18:43;;;;;;;12.50;9.53;;;10.20;45.40;;;;;;5044813;28;20479;-63
2021/12/01 11:21:17;;;;;;;12.77;9.80;;;10.20;49.00;;;;;;5036095;28;20044;-62
2021/12/01 11:23:44;;;;;;;13.40;9.90;;;10.20;53.70;;;;;;5035619;28;20041;-63
2021/12/01 11:26:11;;;;;;;13.33;9.33;;;10.10;44.20;;;;;;5035506;28;20482;-63
2021/12/01 11:28:39;;;;;;;12.93;9.83;;;10.20;41.60;;;;;;5044728;28;20052;-62
2021/12/01 11:31:08;;;;;;;13.73;9.03;;;10.20;40.60;;;;;;5039338;28;20037;-62
2021/12/01 11:33:34;;;;;;;12.80;8.37;;;10.20;48.30;;;;;;5045514;28;20033;-63
2021/12/01 11:36:06;;;;;;;13.90;8.57;;;10.20;48.90;;;;;;5045754;28;20045;-62
2021/12/01 11:38:33;;;;;;;16.07;9.00;;;10.10;50.40;;;;;;5042545;28;20030;-63
2021/12/01 11:41:00;;;;;;;14.47;9.23;;;10.30;51.00;;;;;;5046105;28;20120;-63
2021/12/01 11:43:29;;;;;;;14.17;8.47;;;10.10;51.10;;;;;;5043869;28;20479;-63
2021/12/01 11:45:55;;;;;;;13.40;8.10;;;10.30;52.10;;;;;;5048941;28;20033;-63
2021/12/01 11:48:27;;;;;;;11.00;8.67;;;10.20;51.60;;;;;;5045186;28;20100;-63
2021/12/01 11:51:08;;;;;;;11.90;8.40;;;10.10;51.90;;;;;;5043555;28;20416;-62
2021/12/01 11:53:43;;;;;;;12.67;8.57;;;9.80;51.10;;;;;;5043939;28;20025;-62
2021/12/01 11:56:29;;;;;;;;;;;9.90;51.50;;;;;;5042874;28;20029;-62
2021/12/01 11:59:15;;;;;;;10.38;8.60;;;9.90;51.70;;;;;;5044968;28;19912;-62
2021/12/01 12:02:09;;;;;;;13.30;9.33;;;10.10;51.40;;;;;;5044487;28;20045;-63
2021/12/01 12:04:48;;;;;;;10.47;8.33;;;10.10;51.20;;;;;;5046842;28;20037;-62
2021/12/01 12:07:26;;;;;;;10.80;8.33;;;10.10;52.00;;;;;;5044838;28;20024;-62
2021/12/01 12:10:18;;;;;;;12.43;8.27;;;10.00;51.00;;;;;;5047625;28;20033;-62
2021/12/01 12:13:03;;;;;;;12.80;9.87;;;10.10;50.70;;;;;;5046292;28;20029;-62
2021/12/01 12:15:36;;;;;;;12.40;8.87;;;10.00;50.10;;;;;;5045876;28;20658;-62
2021/12/01 12:18:02;;;;;;;15.50;9.53;;;10.10;50.70;;;;;;5045902;28;20113;-62
2021/12/01 12:20:32;;;;;;;15.70;9.73;;;10.20;50.50;;;;;;5044717;28;20036;-62
2021/12/01 12:23:04;;;;;;;17.77;11.27;;;10.20;50.30;;;;;;5045481;28;20493;-63
2021/12/01 12:25:52;;;;;;;12.50;8.47;;;10.10;50.30;;;;;;5044850;28;20478;-62
2021/12/01 12:28:27;;;;;;;14.97;8.83;;;9.90;50.60;;;;;;5047362;28;20036;-62
2021/12/01 12:30:56;;;;;;;10.10;7.63;;;9.90;50.80;;;;;;5043348;28;20021;-62
2021/12/01 12:33:26;;;;;;;14.50;9.63;;;10.00;51.10;;;;;;5046307;28;20033;-62
2021/12/01 12:35:56;;;;;;;12.23;8.27;;;10.10;51.10;;;;;;5045714;28;20094;-62
2021/12/01 12:38:22;;;;;;;10.00;7.63;;;10.00;50.80;;;;;;5044306;28;20037;-62
2021/12/01 12:40:58;;;;;;;11.13;8.23;;;10.00;50.90;;;;;;5042209;28;20029;-62
2021/12/01 12:43:25;;;;;;;10.33;7.60;;;9.90;50.80;;;;;;5045111;28;20025;-62
2021/12/01 12:46:05;;;;;;;8.03;6.83;;;10.00;50.90;;;;;;5044155;28;20036;-62
2021/12/01 12:48:38;;;;;;;10.80;7.37;;;9.90;51.50;;;;;;5042478;28;20033;-62
2021/12/01 12:51:14;;;;;;;10.13;7.70;;;9.80;51.00;;;;;;5047162;28;20386;-62
2021/12/01 12:54:02;;;;;;;14.17;7.77;;;9.70;51.30;;;;;;5046533;28;20086;-62
2021/12/01 12:56:29;;;;;;;11.37;7.70;;;9.80;50.90;;;;;;5044449;28;20108;-62
2021/12/01 12:59:20;;;;;;;11.53;7.47;;;9.70;50.70;;;;;;5042184;28;20064;-62
2021/12/01 13:01:54;;;;;;;10.83;6.97;;;9.60;51.00;;;;;;5042586;28;20032;-62
2021/12/01 13:07:37;;;;;;;12.43;7.70;;;9.60;51.00;;;;;;5044177;28;20037;-62